createdAt,value
2019-05-18T00:00:14.872Z,2.00
2019-05-18T00:02:45.540Z,2.00
2019-05-18T00:05:16.543Z,1.75
2019-05-18T00:07:47.033Z,1.90
2019-05-18T00:10:18.780Z,2.10
2019-05-18T00:12:50.339Z,1.98
2019-05-18T00:15:21.453Z,1.90
2019-05-18T00:17:52.147Z,2.22
2019-05-18T00:20:23.287Z,2.08
2019-05-18T00:22:54.066Z,2.33
2019-05-18T00:25:25.505Z,2.00
2019-05-18T00:27:57.777Z,2.00
2019-05-18T00:30:27.787Z,2.42
2019-05-18T00:32:58.091Z,2.20
2019-05-18T00:35:28.290Z,2.10
2019-05-18T00:37:58.314Z,1.80
2019-05-18T00:40:28.240Z,1.87
2019-05-18T00:42:58.165Z,2.10
2019-05-18T00:45:28.483Z,1.80
2019-05-18T00:47:58.519Z,2.20
2019-05-18T00:50:28.442Z,2.05
2019-05-18T00:52:58.564Z,1.98
2019-05-18T00:55:28.436Z,2.00
2019-05-18T00:57:58.333Z,2.00
2019-05-18T01:00:28.180Z,2.10
2019-05-18T01:02:58.197Z,1.77
2019-05-18T01:05:28.291Z,2.10
2019-05-18T01:07:58.414Z,1.70
2019-05-18T01:10:28.437Z,2.05
2019-05-18T01:12:58.266Z,2.42
2019-05-18T01:15:28.201Z,1.70
2019-05-18T01:18:01.992Z,1.70
2019-05-18T01:20:30.226Z,1.70
2019-05-18T01:23:00.054Z,2.10
2019-05-18T01:25:30.236Z,1.77
2019-05-18T01:28:00.093Z,1.67
2019-05-18T01:30:30.040Z,2.12
2019-05-18T01:33:00.336Z,2.00
2019-05-18T01:35:30.288Z,1.50
2019-05-18T01:38:00.363Z,1.65
2019-05-18T01:40:30.624Z,1.90
2019-05-18T01:43:00.438Z,2.10
2019-05-18T01:45:30.470Z,1.60
2019-05-18T01:48:12.661Z,1.70
2019-05-18T01:50:31.962Z,1.60
2019-05-18T01:53:02.068Z,1.80
2019-05-18T01:55:31.979Z,1.70
2019-05-18T01:58:01.934Z,1.62
2019-05-18T02:00:32.202Z,1.70
2019-05-18T02:03:02.111Z,1.57
2019-05-18T02:05:32.214Z,1.67
2019-05-18T02:08:02.261Z,1.60
2019-05-18T02:10:32.184Z,1.75
2019-05-18T02:13:02.526Z,1.65
2019-05-18T02:15:33.964Z,1.70
2019-05-18T02:18:04.969Z,1.75
2019-05-18T02:20:34.949Z,1.50
2019-05-18T02:23:05.531Z,1.52
2019-05-18T02:25:35.794Z,1.82
2019-05-18T02:28:06.714Z,1.47
2019-05-18T02:30:36.982Z,1.67
2019-05-18T02:33:06.896Z,1.80
2019-05-18T02:35:36.703Z,1.57
2019-05-18T02:38:16.547Z,1.40
2019-05-18T02:40:48.140Z,1.65
2019-05-18T02:43:18.153Z,1.65
2019-05-18T02:45:48.546Z,1.60
2019-05-18T02:48:47.076Z,1.82
2019-05-18T02:51:01.163Z,1.57
2019-05-18T02:53:31.202Z,1.40
2019-05-18T02:56:03.340Z,1.67
2019-05-18T02:58:33.367Z,1.90
2019-05-18T03:01:03.414Z,1.67
2019-05-18T03:03:34.186Z,1.70
2019-05-18T03:06:05.108Z,1.65
2019-05-18T03:08:36.130Z,1.65
2019-05-18T03:11:07.449Z,1.70
2019-05-18T03:13:38.711Z,1.70
2019-05-18T03:16:09.381Z,1.92
2019-05-18T03:18:40.546Z,1.70
2019-05-18T03:21:11.892Z,1.72
2019-05-18T03:23:42.959Z,2.05
2019-05-18T03:26:13.595Z,1.60
2019-05-18T03:28:44.451Z,1.75
2019-05-18T03:31:15.213Z,1.95
2019-05-18T03:33:46.489Z,1.70
2019-05-18T03:36:17.012Z,1.57
2019-05-18T03:38:48.667Z,1.50
2019-05-18T03:41:19.202Z,1.75
2019-05-18T03:43:49.693Z,1.55
2019-05-18T03:46:23.790Z,1.60
2019-05-18T03:48:53.158Z,1.70
2019-05-18T03:51:24.335Z,1.37
2019-05-18T03:53:54.538Z,1.57
2019-05-18T03:56:24.575Z,1.40
2019-05-18T03:58:55.118Z,1.60
2019-05-18T04:01:25.024Z,1.50
2019-05-18T04:03:55.308Z,1.90
2019-05-18T04:06:25.263Z,1.45
2019-05-18T04:08:55.435Z,1.80
2019-05-18T04:11:25.334Z,1.62
2019-05-18T04:13:56.386Z,1.70
2019-05-18T04:16:26.228Z,1.80
2019-05-18T04:18:56.947Z,1.82
2019-05-18T04:21:26.800Z,2.00
2019-05-18T04:23:56.624Z,2.22
2019-05-18T04:26:26.443Z,2.27
2019-05-18T04:28:59.501Z,2.42
2019-05-18T04:31:32.338Z,2.22
2019-05-18T04:34:02.123Z,2.50
2019-05-18T04:36:31.978Z,2.45
2019-05-18T04:39:02.456Z,2.58
2019-05-18T04:41:32.194Z,2.95
2019-05-18T04:44:02.530Z,2.40
2019-05-18T04:46:32.373Z,2.52
2019-05-18T04:49:02.225Z,2.17
2019-05-18T04:51:32.481Z,2.17
2019-05-18T04:54:03.649Z,2.33
2019-05-18T04:56:33.429Z,2.62
2019-05-18T04:59:03.893Z,2.55
2019-05-18T05:01:33.707Z,2.27
2019-05-18T05:04:07.821Z,2.00
2019-05-18T05:06:38.788Z,2.25
2019-05-18T05:09:09.362Z,2.30
2019-05-18T05:11:39.148Z,2.30
2019-05-18T05:14:09.346Z,2.37
2019-05-18T05:16:39.923Z,2.50
2019-05-18T05:19:10.231Z,2.65
2019-05-18T05:21:39.989Z,2.65
2019-05-18T05:24:10.215Z,2.80
2019-05-18T05:26:40.078Z,2.40
2019-05-18T05:29:09.901Z,2.70
2019-05-18T05:31:39.690Z,2.85
2019-05-18T05:34:10.871Z,2.52
2019-05-18T05:36:41.424Z,2.62
2019-05-18T05:39:12.443Z,2.37
2019-05-18T05:41:43.117Z,2.70
2019-05-18T05:44:13.915Z,2.70
2019-05-18T05:46:44.669Z,2.70
2019-05-18T05:49:15.674Z,2.52
2019-05-18T05:51:45.602Z,2.90
2019-05-18T05:54:15.349Z,2.70
2019-05-18T05:56:45.837Z,2.90
2019-05-18T05:59:16.387Z,2.72
2019-05-18T06:01:47.319Z,2.75
2019-05-18T06:04:17.855Z,2.77
2019-05-18T06:06:49.374Z,2.70
2019-05-18T06:09:19.957Z,3.40
2019-05-18T06:11:52.117Z,3.35
2019-05-18T06:14:23.982Z,3.50
2019-05-18T06:16:54.986Z,3.10
2019-05-18T06:19:25.204Z,3.17
2019-05-18T06:21:56.244Z,3.40
2019-05-18T06:24:27.139Z,3.15
2019-05-18T06:26:58.070Z,3.30
2019-05-18T06:29:29.082Z,3.05
2019-05-18T06:31:59.827Z,3.50
2019-05-18T06:34:30.462Z,3.37
2019-05-18T06:37:03.785Z,3.58
2019-05-18T06:39:33.667Z,3.67
2019-05-18T06:42:03.484Z,3.90
2019-05-18T06:44:34.813Z,3.50
2019-05-18T06:47:05.296Z,3.37
2019-05-18T06:49:45.012Z,3.60
2019-05-18T06:52:15.540Z,3.62
2019-05-18T06:54:48.882Z,3.52
2019-05-18T06:57:19.475Z,3.30
2019-05-18T06:59:51.131Z,3.20
2019-05-18T07:02:21.378Z,3.90
2019-05-18T07:04:51.171Z,3.40
2019-05-18T07:07:21.032Z,3.45
2019-05-18T07:09:50.771Z,3.50
2019-05-18T07:12:20.651Z,3.60
2019-05-18T07:14:50.569Z,4.17
2019-05-18T07:17:21.966Z,3.58
2019-05-18T07:19:52.699Z,3.83
2019-05-18T07:22:23.998Z,3.50
2019-05-18T07:24:55.756Z,3.37
2019-05-18T07:27:26.527Z,3.60
2019-05-18T07:29:57.581Z,3.62
2019-05-18T07:32:28.826Z,3.70
2019-05-18T07:34:59.423Z,3.80
2019-05-18T07:37:29.696Z,3.95
2019-05-18T07:40:00.403Z,3.80
2019-05-18T07:42:31.332Z,4.17
2019-05-18T07:45:02.682Z,3.77
2019-05-18T07:47:34.343Z,3.98
2019-05-18T07:50:05.470Z,4.17
2019-05-18T07:52:38.391Z,4.30
2019-05-18T07:55:10.536Z,4.00
2019-05-18T07:57:41.716Z,3.62
2019-05-18T08:00:12.921Z,4.15
2019-05-18T08:02:44.379Z,3.65
2019-05-18T08:05:16.563Z,4.28
2019-05-18T08:07:47.071Z,4.10
2019-05-18T08:10:23.588Z,3.52
2019-05-18T08:12:54.698Z,4.60
2019-05-18T08:15:25.570Z,4.37
2019-05-18T08:17:55.960Z,4.40
2019-05-18T08:20:26.172Z,3.90
2019-05-18T08:22:57.087Z,4.20
2019-05-18T08:25:27.591Z,4.22
2019-05-18T08:27:58.087Z,3.90
2019-05-18T08:30:29.009Z,4.30
2019-05-18T08:32:59.221Z,4.33
2019-05-18T08:35:28.997Z,4.17
2019-05-18T08:38:00.318Z,4.30
2019-05-18T08:40:31.678Z,4.40
2019-05-18T08:43:02.053Z,4.10
2019-05-18T08:45:33.051Z,4.40
2019-05-18T08:48:04.076Z,4.60
2019-05-18T08:50:37.015Z,4.65
2019-05-18T08:53:08.755Z,4.40
2019-05-18T08:55:40.414Z,4.35
2019-05-18T08:58:11.465Z,4.40
2019-05-18T09:00:41.511Z,4.30
2019-05-18T09:03:11.559Z,4.70
2019-05-18T09:05:42.876Z,4.65
2019-05-18T09:08:14.073Z,4.65
2019-05-18T09:10:44.796Z,4.95
2019-05-18T09:13:15.780Z,4.78
2019-05-18T09:15:46.695Z,4.78
2019-05-18T09:18:17.843Z,4.95
2019-05-18T09:21:23.631Z,4.50
2019-05-18T09:23:59.582Z,4.78
2019-05-18T09:26:30.586Z,4.45
2019-05-18T09:29:01.067Z,4.50
2019-05-18T09:31:31.856Z,4.58
2019-05-18T09:34:02.526Z,4.53
2019-05-18T09:36:35.044Z,4.42
2019-05-18T09:39:07.490Z,4.53
2019-05-18T09:41:38.637Z,4.65
2019-05-18T09:44:10.212Z,4.40
2019-05-18T09:46:41.641Z,4.70
2019-05-18T09:49:13.195Z,3.95
2019-05-18T09:51:44.701Z,4.22
2019-05-18T09:54:15.758Z,4.37
2019-05-18T09:56:46.828Z,3.98
2019-05-18T09:59:18.662Z,4.00
2019-05-18T10:01:49.503Z,4.17
2019-05-18T10:04:19.712Z,3.85
2019-05-18T10:06:52.044Z,4.28
2019-05-18T10:09:22.802Z,4.40
2019-05-18T10:11:53.755Z,4.25
2019-05-18T10:14:24.534Z,4.42
2019-05-18T10:16:54.572Z,4.60
2019-05-18T10:19:25.932Z,4.08
2019-05-18T10:21:57.450Z,4.12
2019-05-18T10:24:28.159Z,4.37
2019-05-18T10:27:05.507Z,4.30
2019-05-18T10:29:36.846Z,4.67
2019-05-18T10:32:06.950Z,4.87
2019-05-18T10:34:37.099Z,4.10
2019-05-18T10:37:07.623Z,4.70
2019-05-18T10:39:38.820Z,4.25
2019-05-18T10:42:10.796Z,4.72
2019-05-18T10:44:42.719Z,4.58
2019-05-18T10:47:12.697Z,5.20
2019-05-18T10:49:45.393Z,4.80
2019-05-18T10:52:16.219Z,4.53
2019-05-18T10:54:46.759Z,4.65
2019-05-18T10:57:17.420Z,4.30
2019-05-18T11:00:12.656Z,4.75
2019-05-18T11:02:43.888Z,4.62
2019-05-18T11:05:14.378Z,4.10
2019-05-18T11:07:44.160Z,4.47
2019-05-18T11:10:15.503Z,4.20
2019-05-18T11:12:45.611Z,4.67
2019-05-18T11:15:16.814Z,4.95
2019-05-18T11:17:46.887Z,4.78
2019-05-18T11:20:16.892Z,4.62
2019-05-18T11:22:46.675Z,4.80
2019-05-18T11:25:16.587Z,4.70
2019-05-18T11:27:46.383Z,4.45
2019-05-18T11:30:17.794Z,4.22
2019-05-18T11:33:23.913Z,4.37
2019-05-18T11:36:11.539Z,4.33
2019-05-18T11:38:56.672Z,4.22
2019-05-18T11:41:26.491Z,4.55
2019-05-18T11:43:56.480Z,5.08
2019-05-18T11:47:01.997Z,4.55
2019-05-18T11:49:33.314Z,4.15
2019-05-18T11:52:05.713Z,4.72
2019-05-18T11:54:36.674Z,4.37
2019-05-18T11:57:07.308Z,3.98
2019-05-18T11:59:37.209Z,4.22
2019-05-18T12:02:06.999Z,4.33
2019-05-18T12:04:36.894Z,4.30
2019-05-18T12:07:07.161Z,4.40
2019-05-18T12:09:39.995Z,4.00
2019-05-18T12:12:09.794Z,4.42
2019-05-18T12:17:30.714Z,4.15
2019-05-18T12:20:00.565Z,3.20
2019-05-18T12:22:30.408Z,3.50
2019-05-18T12:25:00.664Z,3.95
2019-05-18T12:27:31.981Z,3.77
2019-05-18T12:30:02.301Z,4.08
2019-05-18T12:32:32.655Z,4.05
2019-05-18T12:35:02.558Z,3.70
2019-05-18T12:37:33.540Z,3.50
2019-05-18T12:40:05.173Z,3.77
2019-05-18T12:42:35.236Z,3.75
2019-05-18T12:45:06.900Z,3.50
2019-05-18T12:47:38.575Z,3.22
2019-05-18T12:50:09.325Z,3.45
2019-05-18T12:52:39.486Z,3.62
2019-05-18T12:55:15.262Z,3.40
2019-05-18T12:57:51.296Z,4.17
2019-05-18T13:00:21.926Z,3.52
2019-05-18T13:02:51.778Z,3.80
2019-05-18T13:05:22.460Z,3.72
2019-05-18T13:07:52.824Z,3.98
2019-05-18T13:10:23.901Z,3.80
2019-05-18T13:12:53.936Z,3.35
2019-05-18T13:15:24.811Z,3.65
2019-05-18T13:17:55.904Z,3.40
2019-05-18T13:20:28.753Z,3.45
2019-05-18T13:22:58.910Z,3.00
2019-05-18T13:25:28.797Z,3.62
2019-05-18T13:27:58.815Z,3.20
2019-05-18T13:30:28.903Z,3.37
2019-05-18T13:32:59.129Z,3.72
2019-05-18T13:35:29.290Z,3.65
2019-05-18T13:37:59.268Z,3.55
2019-05-18T13:40:29.650Z,3.30
2019-05-18T13:43:00.085Z,3.10
2019-05-18T13:45:30.053Z,3.25
2019-05-18T13:48:00.110Z,3.00
2019-05-18T13:50:30.754Z,3.42
2019-05-18T13:53:00.545Z,3.22
2019-05-18T13:55:30.593Z,3.20
2019-05-18T13:58:00.763Z,3.35
2019-05-18T14:00:31.110Z,3.30
2019-05-18T14:03:01.223Z,2.90
2019-05-18T14:05:31.552Z,3.00
2019-05-18T14:08:02.567Z,3.25
2019-05-18T14:10:32.927Z,3.20
2019-05-18T14:13:02.957Z,3.15
2019-05-18T14:15:32.837Z,3.08
2019-05-18T14:18:04.569Z,2.90
2019-05-18T14:20:34.440Z,3.20
2019-05-18T14:23:04.908Z,3.10
2019-05-18T14:25:35.088Z,3.00
2019-05-18T14:28:05.443Z,3.12
2019-05-18T14:30:35.356Z,2.90
2019-05-18T14:33:05.216Z,3.33
2019-05-18T14:35:35.375Z,3.52
2019-05-18T14:38:05.839Z,3.33
2019-05-18T14:40:36.703Z,3.08
2019-05-18T14:43:07.607Z,2.92
2019-05-18T14:45:38.403Z,2.70
2019-05-18T14:48:08.456Z,3.00
2019-05-18T14:50:38.618Z,3.50
2019-05-18T14:53:09.925Z,2.70
2019-05-18T14:55:39.718Z,3.08
2019-05-18T14:58:10.070Z,2.80
2019-05-18T15:00:40.593Z,2.85
2019-05-18T15:03:10.424Z,2.92
2019-05-18T15:05:40.891Z,3.00
2019-05-18T15:08:10.848Z,2.90
2019-05-18T15:10:41.594Z,2.90
2019-05-18T15:13:11.931Z,3.02
2019-05-18T15:15:42.107Z,3.17
2019-05-18T15:18:12.067Z,3.15
2019-05-18T15:20:42.113Z,2.72
2019-05-18T15:23:12.246Z,2.75
2019-05-18T15:25:50.652Z,2.95
2019-05-18T15:28:14.831Z,2.90
2019-05-18T15:30:44.857Z,2.72
2019-05-18T15:33:14.936Z,3.05
2019-05-18T15:35:44.899Z,2.90
2019-05-18T15:38:14.764Z,3.02
2019-05-18T15:40:44.487Z,2.70
2019-05-18T15:43:15.194Z,2.70
2019-05-18T15:45:45.821Z,2.60
2019-05-18T15:48:16.567Z,3.00
2019-05-18T15:50:47.022Z,2.72
2019-05-18T15:53:17.489Z,2.90
2019-05-18T15:55:49.240Z,2.60
2019-05-18T15:58:20.276Z,2.72
2019-05-18T16:00:51.135Z,2.35
2019-05-18T16:03:21.451Z,2.70
2019-05-18T16:05:51.695Z,2.90
2019-05-18T16:08:22.462Z,2.52
2019-05-18T16:10:53.300Z,2.67
2019-05-18T16:13:25.174Z,2.47
2019-05-18T16:15:56.744Z,2.70
2019-05-18T16:18:28.115Z,2.60
2019-05-18T16:20:59.086Z,2.42
2019-05-18T16:23:29.022Z,2.62
2019-05-18T16:25:59.366Z,2.60
2019-05-18T16:28:29.872Z,2.92
2019-05-18T16:31:00.106Z,2.90
2019-05-18T16:33:29.945Z,3.15
2019-05-18T16:36:00.141Z,2.80
2019-05-18T16:38:29.995Z,2.95
2019-05-18T16:40:59.914Z,2.58
2019-05-18T16:43:32.566Z,2.90
2019-05-18T16:46:02.895Z,2.60
2019-05-18T16:48:32.714Z,2.67
2019-05-18T16:51:02.509Z,3.17
2019-05-18T16:53:32.750Z,3.00
2019-05-18T16:56:02.939Z,2.65
2019-05-18T16:58:33.179Z,3.00
2019-05-18T17:01:03.478Z,2.95
2019-05-18T17:03:35.558Z,2.72
2019-05-18T17:06:06.270Z,2.70
2019-05-18T17:08:36.209Z,2.40
2019-05-18T17:11:42.197Z,2.42
2019-05-18T17:14:28.401Z,2.65
2019-05-18T17:16:59.351Z,2.25
2019-05-18T17:19:30.294Z,2.17
2019-05-18T17:22:00.541Z,2.22
2019-05-18T17:24:31.254Z,2.40
2019-05-18T17:27:01.097Z,1.87
2019-05-18T17:29:31.095Z,2.20
2019-05-18T17:32:01.484Z,2.37
2019-05-18T17:34:31.890Z,2.20
2019-05-18T17:37:02.251Z,2.47
2019-05-18T17:39:31.946Z,2.20
2019-05-18T17:42:05.120Z,2.52
2019-05-18T17:44:35.219Z,2.17
2019-05-18T17:47:06.140Z,2.27
2019-05-18T17:49:36.751Z,2.12
2019-05-18T17:52:07.705Z,2.20
2019-05-18T17:54:37.518Z,2.17
2019-05-18T17:57:08.923Z,2.30
2019-05-18T17:59:38.710Z,2.30
2019-05-18T18:02:09.383Z,2.52
2019-05-18T18:04:39.190Z,2.02
2019-05-18T18:07:09.442Z,2.65
2019-05-18T18:09:39.214Z,2.20
2019-05-18T18:12:09.239Z,2.37
2019-05-18T18:14:39.578Z,2.35
2019-05-18T18:17:09.529Z,2.70
2019-05-18T18:19:39.574Z,2.70
2019-05-18T18:22:09.752Z,2.67
2019-05-18T18:24:40.151Z,2.60
2019-05-18T18:27:24.026Z,2.72
2019-05-18T18:29:41.552Z,2.65
2019-05-18T18:32:11.497Z,2.30
2019-05-18T18:34:42.880Z,2.30
2019-05-18T18:37:13.309Z,2.50
2019-05-18T18:39:43.255Z,2.35
2019-05-18T18:42:13.848Z,2.40
2019-05-18T18:44:43.629Z,2.10
2019-05-18T18:47:13.945Z,2.40
2019-05-18T18:49:43.935Z,2.30
2019-05-18T18:52:13.931Z,2.58
2019-05-18T18:54:44.103Z,2.35
2019-05-18T18:57:14.019Z,2.00
2019-05-18T18:59:43.933Z,2.15
2019-05-18T19:02:14.368Z,2.10
2019-05-18T19:04:44.595Z,2.40
2019-05-18T19:07:14.960Z,2.45
2019-05-18T19:09:46.969Z,2.10
2019-05-18T19:12:17.719Z,2.10
2019-05-18T19:14:47.839Z,1.90
2019-05-18T19:17:18.062Z,1.90
2019-05-18T19:19:48.096Z,2.20
2019-05-18T19:22:17.885Z,2.10
2019-05-18T19:24:48.167Z,1.95
2019-05-18T19:27:18.007Z,2.10
2019-05-18T19:29:47.991Z,2.33
2019-05-18T19:32:17.940Z,2.25
2019-05-18T19:34:48.877Z,2.33
2019-05-18T19:37:19.450Z,2.08
2019-05-18T19:39:49.744Z,1.95
2019-05-18T19:42:20.182Z,2.20
2019-05-18T19:44:50.033Z,2.35
2019-05-18T19:47:20.750Z,1.95
2019-05-18T19:49:52.674Z,2.05
2019-05-18T19:52:22.503Z,1.90
2019-05-18T19:54:52.643Z,2.20
2019-05-18T19:57:23.800Z,2.22
2019-05-18T19:59:54.283Z,2.33
2019-05-18T20:02:24.316Z,2.33
2019-05-18T20:05:06.702Z,2.30
2019-05-18T20:07:26.935Z,2.30
2019-05-18T20:09:58.092Z,2.52
2019-05-18T20:12:28.705Z,1.98
2019-05-18T20:14:59.706Z,2.00
2019-05-18T20:17:29.648Z,2.05
2019-05-18T20:19:59.655Z,2.08
2019-05-18T20:22:30.202Z,1.90
2019-05-18T20:25:00.142Z,2.42
2019-05-18T20:27:30.665Z,2.30
2019-05-18T20:30:01.822Z,2.30
2019-05-18T20:32:31.960Z,2.20
2019-05-18T20:35:02.798Z,2.12
2019-05-18T20:37:32.713Z,2.10
2019-05-18T20:40:02.800Z,2.15
2019-05-18T20:42:32.809Z,2.17
2019-05-18T20:45:02.654Z,1.72
2019-05-18T20:47:33.812Z,2.33
2019-05-18T20:50:05.691Z,2.00
2019-05-18T20:52:35.792Z,2.00
2019-05-18T20:55:06.352Z,2.30
2019-05-18T20:57:36.336Z,2.22
2019-05-18T21:00:06.728Z,2.15
2019-05-18T21:02:37.222Z,1.92
2019-05-18T21:05:07.084Z,2.37
2019-05-18T21:07:37.376Z,1.98
2019-05-18T21:10:08.103Z,2.45
2019-05-18T21:12:38.272Z,2.50
2019-05-18T21:15:08.893Z,2.40
2019-05-18T21:17:38.883Z,2.42
2019-05-18T21:20:08.936Z,1.80
2019-05-18T21:22:38.962Z,1.95
2019-05-18T21:25:10.831Z,2.20
2019-05-18T21:27:40.942Z,2.35
2019-05-18T21:30:10.924Z,2.12
2019-05-18T21:32:40.764Z,1.90
2019-05-18T21:35:11.017Z,2.17
2019-05-18T21:37:41.088Z,2.37
2019-05-18T21:40:11.229Z,2.40
2019-05-18T21:42:41.817Z,2.27
2019-05-18T21:45:12.369Z,2.22
2019-05-18T21:47:42.813Z,2.10
2019-05-18T21:50:12.795Z,2.05
2019-05-18T21:52:43.275Z,2.10
2019-05-18T21:55:13.138Z,2.15
2019-05-18T21:57:43.692Z,2.25
2019-05-18T22:00:13.999Z,2.10
2019-05-18T22:02:45.607Z,2.25
2019-05-18T22:05:16.135Z,2.00
2019-05-18T22:07:46.073Z,2.42
2019-05-18T22:10:25.356Z,2.30
2019-05-18T22:12:47.869Z,2.10
2019-05-18T22:15:17.976Z,2.00
2019-05-18T22:18:06.303Z,2.30
2019-05-18T22:20:43.172Z,2.50
2019-05-18T22:23:09.019Z,2.37
2019-05-18T22:25:38.934Z,2.40
2019-05-18T22:28:08.836Z,2.35
2019-05-18T22:30:39.135Z,2.20
2019-05-18T22:33:09.474Z,2.30
2019-05-18T22:35:39.443Z,2.22
2019-05-18T22:38:11.470Z,2.10
2019-05-18T22:40:41.536Z,2.27
2019-05-18T22:43:12.431Z,2.12
2019-05-18T22:45:42.300Z,2.30
2019-05-18T22:48:12.198Z,2.20
2019-05-18T22:50:42.463Z,2.08
2019-05-18T22:53:13.127Z,2.02
2019-05-18T22:55:43.920Z,2.17
2019-05-18T22:58:13.768Z,2.15
2019-05-18T23:00:43.785Z,2.10
2019-05-18T23:03:13.692Z,2.10
2019-05-18T23:05:43.628Z,2.17
2019-05-18T23:08:13.425Z,2.00
2019-05-18T23:10:43.648Z,2.00
2019-05-18T23:13:14.678Z,1.80
2019-05-18T23:15:44.935Z,2.00
2019-05-18T23:18:15.231Z,2.00
2019-05-18T23:20:45.821Z,2.00
2019-05-18T23:23:16.157Z,2.20
2019-05-18T23:25:46.596Z,2.25
2019-05-18T23:28:16.450Z,2.22
2019-05-18T23:30:46.384Z,1.90
2019-05-18T23:33:16.459Z,1.90
2019-05-18T23:35:46.218Z,2.12
2019-05-18T23:38:16.278Z,2.27
2019-05-18T23:40:46.611Z,2.12
2019-05-18T23:43:16.946Z,1.98
2019-05-18T23:45:46.803Z,1.95
2019-05-18T23:48:17.122Z,2.10
2019-05-18T23:50:47.447Z,1.90
2019-05-18T23:53:17.344Z,2.05
2019-05-18T23:55:47.692Z,2.02
2019-05-18T23:58:18.621Z,2.10
